Time;durP1;ratioP1;P1;durP2;ratioP2;P2;SDS_P1;SDS_P2;PMS_P1;PMS_P2;Temp;Humidity;BMP_temperature;BMP_pressure;BME280_temperature;BME280_humidity;BME280_pressure;Samples;Min_cycle;Max_cycle;Signal;HPM_P1;HPM_P2
2022/06/17 00:01:42;;;;;;;10.80;7.27;;;12.40;82.70;;;;;;5036343;28;20199;-83
2022/06/17 00:04:08;;;;;;;9.17;7.03;;;12.40;82.70;;;;;;5036876;28;20168;-84
2022/06/17 00:06:45;;;;;;;7.40;6.60;;;12.50;83.10;;;;;;5035424;28;20176;-83
2022/06/17 00:09:13;;;;;;;11.67;8.00;;;12.50;83.10;;;;;;5034904;28;20168;-84
2022/06/17 00:11:39;;;;;;;14.73;9.10;;;12.50;82.80;;;;;;5034871;28;20215;-84
2022/06/17 00:14:17;;;;;;;8.60;7.30;;;12.50;83.10;;;;;;5036217;28;20164;-84
2022/06/17 00:16:43;;;;;;;9.83;6.83;;;12.50;82.50;;;;;;5036287;28;20192;-84
2022/06/17 00:19:09;;;;;;;8.77;7.80;;;12.50;82.50;;;;;;5036089;28;21057;-84
2022/06/17 00:21:41;;;;;;;13.10;8.93;;;12.40;82.50;;;;;;5036155;28;20253;-84
2022/06/17 00:24:17;;;;;;;14.33;6.80;;;12.40;83.50;;;;;;5034965;28;20579;-84
2022/06/17 00:26:43;;;;;;;9.50;7.60;;;12.40;83.20;;;;;;5034870;28;20259;-84
2022/06/17 00:29:14;;;;;;;9.30;6.27;;;12.50;82.10;;;;;;5034731;28;20168;-85
2022/06/17 00:31:40;;;;;;;7.03;6.33;;;12.50;81.50;;;;;;5036031;28;20218;-83
2022/06/17 00:34:06;;;;;;;11.17;7.07;;;12.50;81.20;;;;;;5035994;28;20169;-85
2022/06/17 00:36:32;;;;;;;9.17;6.60;;;12.40;80.80;;;;;;5035192;28;20179;-84
2022/06/17 00:38:58;;;;;;;8.07;6.97;;;12.40;80.60;;;;;;5034996;28;20211;-83
2022/06/17 00:41:26;;;;;;;7.60;6.87;;;12.30;80.90;;;;;;5034157;28;20579;-84
2022/06/17 00:43:52;;;;;;;9.63;6.60;;;12.10;81.90;;;;;;5034795;28;20655;-84
2022/06/17 00:46:47;;;;;;;7.93;6.37;;;12.00;81.90;;;;;;5034733;28;20237;-84
2022/06/17 00:49:20;;;;;;;7.10;6.17;;;12.00;81.50;;;;;;5034589;28;20700;-86
2022/06/17 00:52:03;;;;;;;8.10;6.43;;;11.90;81.60;;;;;;5035928;28;20166;-87
2022/06/17 00:54:53;;;;;;;7.87;6.37;;;11.80;81.60;;;;;;5034392;28;20177;-86
2022/06/17 00:57:28;;;;;;;8.23;5.87;;;11.80;81.40;;;;;;5034695;28;20175;-86
2022/06/17 01:00:21;;;;;;;8.27;6.73;;;11.80;81.20;;;;;;5034787;28;20200;-84
2022/06/17 01:03:14;;;;;;;7.90;6.23;;;11.70;81.40;;;;;;5032157;28;20181;-86
2022/06/17 01:05:51;;;;;;;10.73;6.30;;;11.70;81.60;;;;;;5035403;28;20195;-85
2022/06/17 01:11:16;;;;;;;6.97;6.37;;;11.70;81.00;;;;;;5037441;28;20215;-85
2022/06/17 01:13:47;;;;;;;8.10;6.77;;;11.70;80.70;;;;;;5035013;28;20176;-87
2022/06/17 01:16:13;;;;;;;12.53;8.63;;;11.70;80.40;;;;;;5035221;28;20163;-87
2022/06/17 01:18:44;;;;;;;10.73;8.63;;;11.70;81.10;;;;;;5034894;28;20552;-87
2022/06/17 01:21:22;;;;;;;12.33;8.30;;;11.60;83.90;;;;;;5033557;28;20223;-87
2022/06/17 01:23:48;;;;;;;8.07;7.23;;;11.50;84.50;;;;;;5033767;28;20553;-87
2022/06/17 01:26:16;;;;;;;10.23;7.50;;;11.40;84.70;;;;;;5033514;28;20180;-88
2022/06/17 01:28:42;;;;;;;9.40;8.40;;;11.40;85.00;;;;;;5033603;28;20184;-88
2022/06/17 01:31:08;;;;;;;9.23;7.87;;;11.40;85.20;;;;;;5034513;28;20213;-86
2022/06/17 01:33:39;;;;;;;10.57;7.90;;;11.40;85.60;;;;;;5034218;28;20175;-86
2022/06/17 01:36:12;;;;;;;12.73;7.23;;;11.40;86.20;;;;;;5033477;28;20177;-86
2022/06/17 01:38:39;;;;;;;8.53;7.03;;;11.30;85.70;;;;;;5033420;28;20192;-86
2022/06/17 01:41:07;;;;;;;7.97;6.73;;;11.30;85.80;;;;;;5033235;28;20196;-87
2022/06/17 01:43:46;;;;;;;8.90;6.47;;;11.20;85.20;;;;;;5034459;28;20173;-87
2022/06/17 01:46:18;;;;;;;8.93;6.63;;;11.20;85.20;;;;;;5034640;28;20160;-87
2022/06/17 01:48:55;;;;;;;7.70;6.23;;;11.30;84.80;;;;;;5033222;28;20177;-87
2022/06/17 01:51:23;;;;;;;8.17;7.10;;;11.30;84.20;;;;;;5032908;28;20212;-87
2022/06/17 01:53:53;;;;;;;9.97;8.97;;;11.30;84.40;;;;;;5032315;28;20176;-87
2022/06/17 01:56:22;;;;;;;11.13;9.93;;;11.30;84.30;;;;;;5034538;28;20200;-86
2022/06/17 01:59:09;;;;;;;14.33;10.47;;;11.30;84.70;;;;;;5034469;28;20177;-87
2022/06/17 02:01:38;;;;;;;13.53;10.77;;;11.40;84.90;;;;;;5033419;28;20552;-86
2022/06/17 02:04:12;;;;;;;11.53;10.37;;;11.40;84.40;;;;;;5034830;28;20177;-86
2022/06/17 02:07:06;;;;;;;11.17;8.73;;;11.50;84.40;;;;;;5034292;28;20334;-86
2022/06/17 02:09:31;;;;;;;14.47;9.80;;;11.50;83.90;;;;;;5034511;28;20212;-86
2022/06/17 02:12:01;;;;;;;13.53;9.37;;;11.40;85.20;;;;;;5033245;28;20558;-86
2022/06/17 02:14:27;;;;;;;10.97;8.83;;;11.40;85.50;;;;;;5033136;28;20173;-86
2022/06/17 02:16:54;;;;;;;16.30;9.63;;;11.30;85.60;;;;;;5034144;28;20169;-86
2022/06/17 02:19:25;;;;;;;17.53;8.70;;;11.40;85.30;;;;;;5032985;28;20270;-86
2022/06/17 02:21:57;;;;;;;11.70;8.57;;;11.40;84.90;;;;;;5034386;28;20169;-87
2022/06/17 02:24:25;;;;;;;14.70;9.40;;;11.40;84.50;;;;;;5034756;28;20169;-86
2022/06/17 02:26:52;;;;;;;9.07;8.17;;;11.30;84.30;;;;;;5033861;28;20581;-86
2022/06/17 02:29:19;;;;;;;14.93;10.10;;;11.30;84.40;;;;;;5032926;28;20288;-86
2022/06/17 02:31:46;;;;;;;14.67;10.53;;;11.30;84.30;;;;;;5032998;28;20267;-86
2022/06/17 02:34:14;;;;;;;15.40;11.17;;;11.30;84.40;;;;;;5032993;28;20176;-86
2022/06/17 02:37:06;;;;;;;15.43;10.53;;;11.30;84.50;;;;;;5033709;28;20204;-86
2022/06/17 02:39:42;;;;;;;16.13;10.83;;;11.30;84.80;;;;;;5033479;28;20197;-86
2022/06/17 02:42:22;;;;;;;15.33;10.23;;;11.30;85.00;;;;;;5033523;28;20279;-86
2022/06/17 02:44:51;;;;;;;12.13;9.70;;;11.30;84.90;;;;;;5033984;28;20160;-86
2022/06/17 02:47:17;;;;;;;11.30;9.33;;;11.30;85.00;;;;;;5032698;28;20642;-86
2022/06/17 02:49:43;;;;;;;13.40;10.17;;;11.30;84.80;;;;;;5034086;28;20203;-86
2022/06/17 02:52:16;;;;;;;12.27;9.77;;;11.30;84.60;;;;;;5033471;28;20178;-86
2022/06/17 02:54:47;;;;;;;11.47;10.27;;;11.30;84.30;;;;;;5032613;28;20199;-85
2022/06/17 02:57:24;;;;;;;16.77;10.60;;;11.20;84.00;;;;;;5034621;28;20157;-86
2022/06/17 02:59:59;;;;;;;14.13;11.20;;;11.20;84.90;;;;;;5032737;28;20192;-86
2022/06/17 03:02:30;;;;;;;15.07;10.27;;;11.10;85.10;;;;;;5032489;28;20222;-85
2022/06/17 03:04:57;;;;;;;14.03;10.47;;;11.10;85.40;;;;;;5032922;28;20635;-85
2022/06/17 03:07:26;;;;;;;11.57;10.37;;;11.20;85.30;;;;;;5033199;28;20173;-86
2022/06/17 03:09:51;;;;;;;16.53;10.90;;;11.30;85.30;;;;;;5033305;28;20201;-86
2022/06/17 03:12:21;;;;;;;16.13;11.37;;;11.30;85.30;;;;;;5034621;28;20876;-86
2022/06/17 03:14:49;;;;;;;14.20;11.27;;;11.50;85.60;;;;;;5033827;28;20172;-86
2022/06/17 03:17:19;;;;;;;17.83;11.97;;;11.60;85.80;;;;;;5033366;28;20177;-86
2022/06/17 03:19:46;;;;;;;19.27;11.37;;;11.50;86.30;;;;;;5032971;28;20226;-86
2022/06/17 03:22:13;;;;;;;11.67;10.53;;;11.60;86.40;;;;;;5032541;28;20666;-86
2022/06/17 03:24:46;;;;;;;16.63;10.10;;;11.70;86.10;;;;;;5032478;28;20183;-86
2022/06/17 03:27:42;;;;;;;12.60;9.67;;;11.70;85.60;;;;;;5032766;28;20255;-86
2022/06/17 03:30:09;;;;;;;11.03;9.73;;;11.80;85.10;;;;;;5033111;28;20208;-86
2022/06/17 03:32:40;;;;;;;11.77;9.80;;;11.80;84.60;;;;;;5032778;28;20214;-86
2022/06/17 03:35:08;;;;;;;10.97;9.83;;;11.80;84.00;;;;;;5033732;28;20165;-86
2022/06/17 03:37:47;;;;;;;10.03;9.03;;;11.80;83.50;;;;;;5033257;28;20173;-86
2022/06/17 03:40:17;;;;;;;13.87;10.37;;;11.90;83.20;;;;;;5033438;28;20200;-86
2022/06/17 03:42:54;;;;;;;13.30;9.60;;;12.00;83.00;;;;;;5031925;28;20172;-86
2022/06/17 03:45:34;;;;;;;14.07;9.03;;;12.30;82.90;;;;;;5034025;28;20215;-86
2022/06/17 03:48:25;;;;;;;11.90;8.40;;;12.50;82.60;;;;;;5033104;28;20204;-86
2022/06/17 03:50:51;;;;;;;13.10;9.73;;;12.60;82.40;;;;;;5034182;28;20208;-87
2022/06/17 03:53:33;;;;;;;14.23;10.03;;;12.80;82.30;;;;;;5032916;28;20184;-86
2022/06/17 03:56:14;;;;;;;15.23;11.37;;;13.00;81.70;;;;;;5033815;28;20256;-86
2022/06/17 03:58:40;;;;;;;14.50;12.10;;;13.00;81.50;;;;;;5034619;28;20176;-86
2022/06/17 04:01:12;;;;;;;11.97;10.83;;;13.10;81.80;;;;;;5033510;28;20200;-85
2022/06/17 04:03:40;;;;;;;16.47;10.50;;;13.20;81.70;;;;;;5033216;28;20188;-86
2022/06/17 04:06:15;;;;;;;13.57;10.20;;;13.20;81.50;;;;;;5031949;28;20180;-86
2022/06/17 04:09:18;;;;;;;12.70;10.77;;;13.30;81.10;;;;;;5031945;28;20211;-86
2022/06/17 04:11:48;;;;;;;13.63;10.73;;;13.50;81.50;;;;;;4991909;28;20186;-86
2022/06/17 04:14:29;;;;;;;14.50;10.70;;;13.60;81.30;;;;;;5022942;28;20219;-86
2022/06/17 04:17:15;;;;;;;17.47;12.10;;;13.70;81.00;;;;;;5037494;28;20157;-86
2022/06/17 04:19:43;;;;;;;13.53;11.73;;;13.70;81.10;;;;;;5037065;28;20649;-86
2022/06/17 04:22:18;;;;;;;16.97;12.27;;;13.70;81.20;;;;;;5037003;28;20177;-86
2022/06/17 04:24:48;;;;;;;19.00;12.77;;;13.40;81.30;;;;;;5036861;28;20175;-86
2022/06/17 04:27:15;;;;;;;14.27;12.77;;;13.20;82.90;;;;;;5037923;28;20196;-86
2022/06/17 04:29:44;;;;;;;16.93;13.20;;;13.20;82.90;;;;;;5037216;28;20207;-86
2022/06/17 04:32:18;;;;;;;21.13;13.70;;;13.10;83.80;;;;;;5035500;28;20195;-86
2022/06/17 04:34:44;;;;;;;16.07;14.20;;;13.10;84.30;;;;;;5035617;28;20191;-86
2022/06/17 04:37:19;;;;;;;19.47;15.10;;;13.10;84.60;;;;;;5035121;28;20638;-86
2022/06/17 04:39:47;;;;;;;21.93;15.93;;;13.10;85.20;;;;;;5034881;28;20200;-86
2022/06/17 04:42:19;;;;;;;20.13;16.87;;;13.00;86.20;;;;;;5034923;28;20188;-86
2022/06/17 04:44:45;;;;;;;21.93;17.43;;;13.00;87.30;;;;;;5036535;28;20204;-86
2022/06/17 04:47:16;;;;;;;18.83;16.33;;;13.00;87.50;;;;;;5037054;28;20203;-86
2022/06/17 04:49:49;;;;;;;22.47;16.20;;;13.00;87.40;;;;;;5036249;28;20228;-86
2022/06/17 04:52:37;;;;;;;19.83;16.27;;;13.10;87.40;;;;;;5035308;28;20172;-86
2022/06/17 04:55:10;;;;;;;19.40;15.40;;;13.20;87.30;;;;;;5036948;28;20150;-86
2022/06/17 04:57:38;;;;;;;19.37;15.37;;;13.20;87.40;;;;;;5038128;28;20177;-86
2022/06/17 05:00:04;;;;;;;21.07;16.70;;;13.30;87.40;;;;;;5036829;28;20196;-86
2022/06/17 05:02:32;;;;;;;23.10;15.63;;;13.30;87.40;;;;;;5035710;28;20662;-86
2022/06/17 05:05:04;;;;;;;17.90;16.10;;;13.40;87.70;;;;;;5036614;28;20562;-86
2022/06/17 05:07:39;;;;;;;25.77;17.17;;;13.50;88.30;;;;;;5036575;28;20176;-85
2022/06/17 05:10:12;;;;;;;20.73;18.10;;;13.50;88.90;;;;;;5035166;28;20204;-87
2022/06/17 05:12:42;;;;;;;23.40;16.47;;;13.60;89.30;;;;;;5035210;28;20172;-86
2022/06/17 05:15:15;;;;;;;21.97;15.17;;;13.80;89.40;;;;;;5036384;28;20179;-86
2022/06/17 05:17:41;;;;;;;18.37;12.80;;;13.80;88.10;;;;;;5034837;28;20173;-87
2022/06/17 05:20:18;;;;;;;18.83;12.60;;;13.90;86.30;;;;;;5034210;28;20218;-86
2022/06/17 05:23:03;;;;;;;14.77;11.33;;;14.10;84.90;;;;;;5035307;28;20211;-86
2022/06/17 05:25:34;;;;;;;16.00;10.73;;;14.30;84.00;;;;;;5035292;28;20214;-86
2022/06/17 05:28:00;;;;;;;14.50;11.20;;;14.40;84.20;;;;;;5033978;28;20172;-86
2022/06/17 05:30:31;;;;;;;20.57;11.10;;;14.50;84.30;;;;;;5035135;28;20211;-87
2022/06/17 05:32:57;;;;;;;23.33;12.10;;;14.70;84.30;;;;;;5034020;28;20172;-85
2022/06/17 05:35:23;;;;;;;19.53;13.00;;;14.70;83.50;;;;;;5034124;28;20165;-86
2022/06/17 05:37:49;;;;;;;19.53;12.10;;;14.90;83.80;;;;;;5033810;28;20666;-86
2022/06/17 05:40:15;;;;;;;20.37;11.73;;;14.90;81.70;;;;;;5033638;28;20196;-86
2022/06/17 05:42:43;;;;;;;14.73;11.50;;;15.00;82.00;;;;;;5033875;28;20179;-86
2022/06/17 05:45:14;;;;;;;18.17;11.63;;;15.00;81.40;;;;;;5034424;28;20180;-84
2022/06/17 05:47:41;;;;;;;21.83;11.67;;;15.00;81.00;;;;;;5033773;28;20212;-86
2022/06/17 05:50:08;;;;;;;22.47;12.40;;;15.10;80.50;;;;;;5035017;28;20197;-86
2022/06/17 05:52:34;;;;;;;18.13;11.53;;;15.10;80.40;;;;;;5033534;28;20207;-86
2022/06/17 05:55:02;;;;;;;25.13;12.30;;;15.20;80.30;;;;;;5035071;28;20177;-85
2022/06/17 05:57:28;;;;;;;15.50;11.97;;;15.30;80.30;;;;;;5034626;28;20588;-86
2022/06/17 05:59:53;;;;;;;17.97;12.03;;;15.40;80.40;;;;;;5035397;28;20188;-86
2022/06/17 06:02:19;;;;;;;16.10;12.93;;;15.40;79.70;;;;;;5033741;28;20257;-86
2022/06/17 06:04:44;;;;;;;15.17;11.10;;;15.50;79.60;;;;;;5034878;28;20168;-86
2022/06/17 06:07:10;;;;;;;17.23;11.03;;;15.60;78.60;;;;;;5033226;28;20554;-87
2022/06/17 06:09:35;;;;;;;16.67;11.60;;;15.60;78.10;;;;;;5032891;28;20682;-86
2022/06/17 06:12:01;;;;;;;22.80;12.60;;;15.60;78.10;;;;;;5033231;28;20200;-86
2022/06/17 06:14:27;;;;;;;21.53;12.07;;;15.60;78.30;;;;;;5034375;28;20168;-86
2022/06/17 06:16:52;;;;;;;16.53;11.77;;;15.70;78.10;;;;;;5034047;28;20169;-86
2022/06/17 06:19:18;;;;;;;21.70;12.67;;;15.80;77.00;;;;;;5032824;28;20219;-85
2022/06/17 06:21:43;;;;;;;24.57;12.47;;;15.80;76.20;;;;;;5032872;28;20176;-85
2022/06/17 06:24:09;;;;;;;13.90;11.10;;;15.90;76.60;;;;;;5032762;28;20185;-86
2022/06/17 06:26:34;;;;;;;16.70;11.50;;;16.10;76.40;;;;;;5032869;28;20184;-85
2022/06/17 06:29:00;;;;;;;19.95;11.02;;;16.20;76.00;;;;;;5032566;28;20184;-85
2022/06/17 06:31:33;;;;;;;14.43;9.77;;;16.30;75.00;;;;;;5032431;28;20207;-85
2022/06/17 06:33:59;;;;;;;17.13;10.50;;;16.30;74.30;;;;;;5033535;28;20169;-86
2022/06/17 06:36:25;;;;;;;17.83;10.25;;;16.50;73.90;;;;;;5032755;28;20181;-85
2022/06/17 06:38:50;;;;;;;14.93;9.20;;;16.60;73.90;;;;;;5032855;28;20183;-85
2022/06/17 06:41:21;;;;;;;11.75;8.52;;;16.70;73.10;;;;;;5032516;28;20200;-86
2022/06/17 06:43:47;;;;;;;10.98;8.45;;;16.80;74.30;;;;;;5033939;28;20164;-86
2022/06/17 06:46:15;;;;;;;12.10;9.23;;;16.70;71.10;;;;;;5032259;28;20176;-86
2022/06/17 06:48:42;;;;;;;16.52;11.20;;;16.80;73.10;;;;;;5032229;28;20177;-85
2022/06/17 06:51:08;;;;;;;13.23;9.30;;;16.70;71.60;;;;;;5032126;28;20326;-85
2022/06/17 06:53:33;;;;;;;19.13;8.88;;;16.70;71.20;;;;;;5032294;28;20666;-86
2022/06/17 06:55:59;;;;;;;20.33;9.40;;;16.80;71.30;;;;;;5033387;28;20176;-86
2022/06/17 06:58:25;;;;;;;12.07;8.98;;;17.00;71.40;;;;;;5033368;28;20191;-86
2022/06/17 07:00:56;;;;;;;14.73;9.18;;;17.10;70.20;;;;;;5032145;28;20208;-85
2022/06/17 07:03:24;;;;;;;18.48;10.65;;;17.20;71.00;;;;;;5032064;28;20184;-86
2022/06/17 07:05:52;;;;;;;17.70;13.25;;;17.20;71.10;;;;;;5032021;28;20318;-86
2022/06/17 07:08:20;;;;;;;18.35;15.45;;;17.30;70.60;;;;;;5031971;28;20188;-85
2022/06/17 07:10:48;;;;;;;13.07;10.63;;;17.30;69.30;;;;;;5031679;28;20574;-86
2022/06/17 07:13:14;;;;;;;15.75;10.25;;;17.30;69.80;;;;;;5033210;28;20171;-86
2022/06/17 07:15:42;;;;;;;18.77;11.43;;;17.40;69.30;;;;;;5031850;28;20230;-85
2022/06/17 07:18:17;;;;;;;12.48;9.93;;;17.60;70.00;;;;;;5032253;28;20180;-86
2022/06/17 07:20:46;;;;;;;13.07;11.38;;;17.60;68.80;;;;;;5031823;28;20235;-87
2022/06/17 07:23:14;;;;;;;17.35;11.27;;;17.80;69.20;;;;;;5033767;28;20179;-86
2022/06/17 07:25:40;;;;;;;10.45;8.75;;;17.90;68.40;;;;;;5033358;28;20176;-86
2022/06/17 07:28:07;;;;;;;8.60;7.05;;;18.00;68.10;;;;;;5033098;28;20177;-86
2022/06/17 07:30:34;;;;;;;11.57;7.75;;;18.10;66.90;;;;;;5033054;28;20732;-86
2022/06/17 07:33:00;;;;;;;11.82;8.00;;;18.20;66.10;;;;;;5033315;28;20195;-86
2022/06/17 07:35:26;;;;;;;15.65;7.35;;;18.30;68.40;;;;;;5033226;28;20165;-86
2022/06/17 07:40:35;;;;;;;9.20;6.03;;;18.70;65.60;;;;;;5033454;28;20367;-87
2022/06/17 07:43:01;;;;;;;9.38;6.78;;;18.80;65.00;;;;;;5032057;28;20204;-87
2022/06/17 07:45:30;;;;;;;10.95;6.40;;;18.70;64.30;;;;;;5031854;28;20177;-87
2022/06/17 07:47:56;;;;;;;9.73;6.47;;;19.00;64.80;;;;;;5031990;28;20188;-86
2022/06/17 07:50:29;;;;;;;15.10;6.90;;;18.90;63.40;;;;;;5033753;28;20204;-86
2022/06/17 07:52:55;;;;;;;6.93;5.72;;;19.20;65.50;;;;;;5037074;28;20176;-87
2022/06/17 07:55:21;;;;;;;9.57;6.10;;;19.50;63.80;;;;;;5036899;28;20535;-87
2022/06/17 07:57:47;;;;;;;10.15;6.20;;;19.50;60.70;;;;;;5037090;28;20674;-87
2022/06/17 08:00:28;;;;;;;12.85;6.32;;;19.50;62.60;;;;;;5036979;28;20250;-86
2022/06/17 08:02:53;;;;;;;13.15;6.45;;;19.60;63.20;;;;;;5036077;28;20184;-87
2022/06/17 08:05:21;;;;;;;12.02;7.35;;;19.80;62.90;;;;;;5035431;28;20590;-86
2022/06/17 08:07:48;;;;;;;10.93;6.10;;;19.80;61.60;;;;;;5036926;28;20179;-87
2022/06/17 08:10:16;;;;;;;12.95;6.25;;;20.10;61.30;;;;;;5035791;28;20291;-87
2022/06/17 08:12:42;;;;;;;9.27;5.60;;;20.20;59.50;;;;;;5036723;28;20169;-87
2022/06/17 08:15:08;;;;;;;8.60;6.00;;;19.90;60.00;;;;;;5035538;28;20172;-87
2022/06/17 08:17:34;;;;;;;8.13;5.95;;;19.80;60.90;;;;;;5036634;28;20177;-87
2022/06/17 08:19:59;;;;;;;8.13;6.07;;;19.90;60.00;;;;;;5035061;28;20208;-87
2022/06/17 08:22:26;;;;;;;11.70;5.38;;;20.00;60.20;;;;;;5036522;28;20181;-87
2022/06/17 08:24:52;;;;;;;9.13;5.57;;;20.30;60.60;;;;;;5034933;28;20177;-87
2022/06/17 08:27:18;;;;;;;13.82;6.05;;;20.10;58.60;;;;;;5035235;28;20614;-87
2022/06/17 08:29:44;;;;;;;9.00;5.18;;;20.00;59.10;;;;;;5036334;28;20286;-87
2022/06/17 08:34:53;;;;;;;10.18;4.90;;;20.10;61.60;;;;;;5037203;28;20594;-86
2022/06/17 08:37:19;;;;;;;9.80;4.82;;;20.50;60.10;;;;;;5035449;28;20173;-86
2022/06/17 08:39:48;;;;;;;5.68;4.30;;;20.60;60.60;;;;;;5035423;28;20196;-86
2022/06/17 08:42:35;;;;;;;8.60;4.75;;;20.70;60.00;;;;;;5036418;28;20169;-86
2022/06/17 08:45:30;;;;;;;12.73;5.35;;;20.70;59.30;;;;;;5035024;28;20524;-86
2022/06/17 08:48:33;;;;;;;7.55;4.75;;;20.60;59.90;;;;;;5036497;28;20240;-86
2022/06/17 08:51:42;;;;;;;6.10;4.18;;;20.80;60.40;;;;;;5035796;28;20204;-86
2022/06/17 08:54:36;;;;;;;8.15;5.20;;;20.70;59.80;;;;;;5034029;28;20184;-86
2022/06/17 08:57:17;;;;;;;8.70;4.88;;;20.50;56.20;;;;;;5034898;28;20169;-86
2022/06/17 09:00:03;;;;;;;8.15;4.85;;;20.80;58.80;;;;;;5036100;28;20216;-87
2022/06/17 09:02:38;;;;;;;12.10;4.97;;;20.80;56.90;;;;;;5035172;28;20642;-87
2022/06/17 09:05:18;;;;;;;7.90;3.97;;;21.10;57.00;;;;;;5035340;28;20268;-87
2022/06/17 09:08:02;;;;;;;11.85;4.05;;;21.00;57.60;;;;;;5035756;28;20267;-88
2022/06/17 09:10:57;;;;;;;8.02;3.70;;;21.20;56.70;;;;;;5034312;28;20208;-87
2022/06/17 09:13:49;;;;;;;9.32;4.75;;;21.30;55.50;;;;;;5034131;28;20172;-87
2022/06/17 09:16:26;;;;;;;10.25;4.53;;;21.70;56.00;;;;;;5034281;28;20625;-87
2022/06/17 09:19:02;;;;;;;14.18;4.35;;;22.20;55.10;;;;;;5034200;28;20546;-87
2022/06/17 09:21:32;;;;;;;8.32;4.32;;;21.90;55.40;;;;;;5034182;28;20551;-85
2022/06/17 09:24:05;;;;;;;9.73;4.68;;;22.00;55.10;;;;;;5034165;28;20236;-88
2022/06/17 09:26:46;;;;;;;9.30;5.82;;;21.50;54.00;;;;;;5034970;28;20211;-88
2022/06/17 09:29:20;;;;;;;9.77;4.38;;;21.40;54.50;;;;;;5033526;28;20165;-88
2022/06/17 09:31:58;;;;;;;7.00;5.07;;;21.70;56.60;;;;;;5033624;28;20196;-87
2022/06/17 09:34:55;;;;;;;8.63;4.90;;;22.10;55.40;;;;;;5034714;28;20189;-88
2022/06/17 09:37:53;;;;;;;7.82;4.60;;;21.40;54.10;;;;;;5033729;28;20689;-87
2022/06/17 09:40:29;;;;;;;12.70;4.60;;;21.20;54.70;;;;;;5033660;28;20208;-86
2022/06/17 09:42:58;;;;;;;5.88;4.30;;;21.40;57.50;;;;;;5035008;28;20158;-86
2022/06/17 09:45:40;;;;;;;10.48;4.40;;;21.40;54.90;;;;;;5034878;28;20169;-86
2022/06/17 09:48:14;;;;;;;7.30;4.25;;;21.60;55.60;;;;;;5034816;28;20161;-87
2022/06/17 09:51:13;;;;;;;6.60;4.57;;;21.90;56.60;;;;;;5033027;28;20683;-88
2022/06/17 09:54:10;;;;;;;11.63;4.82;;;22.00;56.90;;;;;;5034473;28;20161;-87
2022/06/17 09:56:56;;;;;;;6.45;5.00;;;22.20;56.20;;;;;;5033027;28;20176;-88
2022/06/17 09:59:34;;;;;;;7.45;4.65;;;21.90;56.90;;;;;;5034539;28;20235;-87
2022/06/17 10:02:22;;;;;;;8.32;4.07;;;22.00;55.70;;;;;;5033057;28;20179;-88
2022/06/17 10:04:49;;;;;;;10.63;4.75;;;22.30;56.10;;;;;;5033300;28;20172;-88
2022/06/17 10:07:53;;;;;;;4.50;3.97;;;22.20;54.30;;;;;;5032852;28;20559;-87
2022/06/17 10:10:30;;;;;;;9.80;4.95;;;22.50;55.70;;;;;;5034020;28;20693;-87
2022/06/17 10:13:24;;;;;;;8.85;4.28;;;22.20;52.50;;;;;;5034009;28;20161;-87
2022/06/17 10:19:00;;;;;;;7.05;4.63;;;22.60;52.00;;;;;;5034661;28;20199;-86
2022/06/17 10:21:52;;;;;;;7.18;4.68;;;22.20;53.20;;;;;;5034224;28;20607;-88
2022/06/17 10:24:46;;;;;;;7.60;3.72;;;22.00;54.20;;;;;;5035171;28;20219;-87
2022/06/17 10:27:17;;;;;;;8.65;4.50;;;22.30;53.40;;;;;;4997735;28;20189;-87
2022/06/17 10:30:18;;;;;;;7.60;4.22;;;22.60;52.10;;;;;;5033053;28;20227;-87
2022/06/17 10:32:47;;;;;;;8.77;4.13;;;22.10;52.30;;;;;;4957649;28;20195;-88
2022/06/17 10:35:26;;;;;;;7.20;4.30;;;22.00;52.50;;;;;;5023518;28;20177;-87
2022/06/17 10:37:52;;;;;;;8.65;4.18;;;22.50;51.90;;;;;;5033325;28;20179;-87
2022/06/17 10:40:20;;;;;;;6.85;3.28;;;22.30;50.20;;;;;;5034427;28;20188;-86
2022/06/17 10:42:48;;;;;;;12.00;3.25;;;22.10;53.60;;;;;;5033294;28;20560;-87
2022/06/17 10:45:16;;;;;;;4.63;3.40;;;22.10;51.90;;;;;;5032412;28;20177;-88
2022/06/17 10:47:52;;;;;;;5.68;3.20;;;22.10;51.00;;;;;;5034027;28;20207;-87
2022/06/17 10:50:28;;;;;;;7.25;3.33;;;21.90;51.80;;;;;;5033214;28;20211;-85
2022/06/17 10:53:16;;;;;;;6.63;3.13;;;22.20;54.70;;;;;;5033934;28;20635;-85
2022/06/17 10:55:48;;;;;;;5.32;3.20;;;22.30;54.10;;;;;;5033743;28;20177;-85
2022/06/17 10:58:17;;;;;;;4.63;2.42;;;22.50;53.70;;;;;;5032876;28;20171;-83
2022/06/17 11:00:51;;;;;;;3.92;2.70;;;22.50;54.10;;;;;;5034594;28;20220;-85
2022/06/17 11:03:22;;;;;;;4.80;2.80;;;22.90;53.80;;;;;;5035322;28;20157;-84
2022/06/17 11:06:13;;;;;;;4.95;3.13;;;22.80;54.70;;;;;;5035190;28;20226;-85
2022/06/17 11:08:54;;;;;;;12.82;3.53;;;22.90;52.90;;;;;;5033388;28;20176;-83
2022/06/17 11:12:05;;;;;;;7.10;3.33;;;22.80;54.50;;;;;;5035018;28;20657;-85
2022/06/17 11:14:48;;;;;;;13.02;3.58;;;22.30;52.00;;;;;;5035274;28;20145;-84
2022/06/17 11:17:28;;;;;;;3.85;2.95;;;22.70;52.90;;;;;;5033474;28;20164;-85
2022/06/17 11:19:57;;;;;;;7.32;3.03;;;22.40;53.40;;;;;;5035019;28;20204;-84
2022/06/17 11:22:32;;;;;;;8.57;3.15;;;22.70;52.70;;;;;;5035380;28;20179;-85
2022/06/17 11:25:02;;;;;;;8.32;3.00;;;22.90;52.90;;;;;;5034790;28;20547;-86
2022/06/17 11:27:44;;;;;;;4.30;3.38;;;23.30;52.70;;;;;;5039522;28;20168;-87
2022/06/17 11:30:27;;;;;;;5.85;3.17;;;23.50;52.10;;;;;;5039186;28;20204;-86
2022/06/17 11:32:53;;;;;;;6.03;3.42;;;23.10;51.80;;;;;;5039571;28;20531;-86
2022/06/17 11:35:27;;;;;;;8.95;3.30;;;23.10;51.90;;;;;;5039312;28;20597;-86
2022/06/17 11:37:54;;;;;;;9.57;3.90;;;23.10;53.20;;;;;;5040024;28;20165;-84
2022/06/17 11:40:23;;;;;;;8.30;3.22;;;23.60;52.80;;;;;;5038404;28;20223;-86
2022/06/17 11:42:58;;;;;;;5.65;2.67;;;23.60;51.80;;;;;;5040166;28;20172;-86
2022/06/17 11:45:37;;;;;;;7.13;3.00;;;23.70;50.40;;;;;;5037411;28;20176;-85
2022/06/17 11:48:15;;;;;;;16.08;3.10;;;23.80;51.50;;;;;;5039057;28;20184;-87
2022/06/17 11:50:58;;;;;;;6.65;3.30;;;23.90;51.10;;;;;;5038928;28;20211;-85
2022/06/17 11:53:25;;;;;;;6.25;3.40;;;23.80;50.80;;;;;;5037507;28;20627;-87
2022/06/17 11:55:51;;;;;;;6.57;3.25;;;23.90;50.60;;;;;;5039417;28;20181;-84
2022/06/17 11:58:18;;;;;;;10.57;3.97;;;23.90;51.20;;;;;;5037500;28;20681;-87
2022/06/17 12:00:49;;;;;;;5.72;3.30;;;24.20;50.10;;;;;;5037243;28;20201;-85
2022/06/17 12:03:37;;;;;;;7.68;3.28;;;24.20;51.40;;;;;;5038388;28;20219;-86
2022/06/17 12:06:05;;;;;;;5.88;2.92;;;23.90;53.10;;;;;;5036947;28;20192;-85
2022/06/17 12:08:45;;;;;;;8.23;3.15;;;24.20;52.20;;;;;;5038086;28;20238;-86
2022/06/17 12:11:13;;;;;;;6.72;3.00;;;24.50;50.00;;;;;;5037648;28;20208;-85
2022/06/17 12:13:44;;;;;;;8.80;3.22;;;24.60;48.90;;;;;;5038506;28;20188;-86
2022/06/17 12:16:19;;;;;;;6.60;3.13;;;24.10;52.00;;;;;;5038626;28;20223;-86
2022/06/17 12:18:52;;;;;;;7.05;3.03;;;23.70;52.80;;;;;;5038318;28;20234;-85
2022/06/17 12:21:21;;;;;;;8.02;2.80;;;23.60;52.00;;;;;;5038181;28;20223;-85
2022/06/17 12:24:17;;;;;;;10.20;2.90;;;23.70;52.50;;;;;;5037698;28;20203;-87
2022/06/17 12:27:02;;;;;;;6.25;3.15;;;24.00;52.10;;;;;;5026014;28;20669;-85
2022/06/17 12:29:34;;;;;;;5.38;2.60;;;24.20;51.10;;;;;;5036770;28;20196;-85
2022/06/17 12:32:17;;;;;;;5.93;2.85;;;24.10;51.60;;;;;;5036186;28;20205;-85
2022/06/17 12:35:03;;;;;;;4.68;2.50;;;24.30;49.80;;;;;;5037480;28;20532;-85
2022/06/17 12:37:38;;;;;;;9.35;3.33;;;24.10;49.70;;;;;;5037353;28;20157;-87
2022/06/17 12:40:37;;;;;;;7.95;3.05;;;24.30;52.30;;;;;;5037953;28;20669;-85
2022/06/17 12:43:33;;;;;;;10.73;3.25;;;24.20;51.10;;;;;;5036617;28;20639;-85
2022/06/17 12:46:08;;;;;;;7.78;3.15;;;24.00;51.80;;;;;;5037362;28;20176;-86
2022/06/17 12:53:14;;;;;;;6.35;3.22;;;23.90;52.00;;;;;;5039038;28;20619;-85
2022/06/17 12:55:00;;;;;;;6.97;3.20;;;24.30;49.50;;;;;;5038997;28;20202;-86
2022/06/17 12:57:51;;;;;;;6.80;2.70;;;24.50;49.80;;;;;;5038619;28;20157;-85
2022/06/17 13:00:22;;;;;;;7.00;2.85;;;24.50;48.80;;;;;;5038386;28;20196;-85
2022/06/17 13:03:26;;;;;;;8.75;3.22;;;24.40;50.30;;;;;;5038989;28;20157;-85
2022/06/17 13:05:54;;;;;;;8.38;3.35;;;24.20;48.90;;;;;;5037019;28;20219;-85
2022/06/17 13:08:37;;;;;;;7.07;2.50;;;24.50;49.80;;;;;;5036667;28;20607;-85
2022/06/17 13:11:12;;;;;;;11.50;3.17;;;24.40;47.20;;;;;;5036304;28;20204;-86
2022/06/17 13:14:03;;;;;;;4.30;2.65;;;24.20;49.20;;;;;;5036753;28;20176;-85
2022/06/17 13:17:02;;;;;;;8.02;2.47;;;24.30;48.10;;;;;;5037820;28;20533;-85
2022/06/17 13:19:38;;;;;;;6.63;3.05;;;24.60;48.50;;;;;;5037360;28;20200;-87
2022/06/17 13:22:09;;;;;;;5.30;2.72;;;24.50;47.10;;;;;;5036757;28;20588;-86
2022/06/17 13:24:48;;;;;;;8.63;3.15;;;24.40;48.10;;;;;;5037115;28;20177;-86
2022/06/17 13:27:37;;;;;;;5.80;2.67;;;23.90;47.30;;;;;;5038258;28;20172;-86